createdAt,value
2017-05-31T00:01:12.685Z,25.18
2017-05-31T00:02:58.854Z,25.17
2017-05-31T00:04:45.190Z,25.09
2017-05-31T00:06:31.382Z,25.10
2017-05-31T00:08:17.512Z,25.09
2017-05-31T00:10:03.861Z,25.14
2017-05-31T00:11:49.982Z,25.13
2017-05-31T00:13:36.170Z,24.96
2017-05-31T00:15:22.534Z,25.08
2017-05-31T00:17:08.662Z,25.09
2017-05-31T00:18:54.768Z,25.10
2017-05-31T00:20:41.148Z,25.05
2017-05-31T00:22:27.264Z,25.03
2017-05-31T00:24:14.393Z,25.02
2017-05-31T00:26:00.542Z,25.05
2017-05-31T00:27:47.461Z,25.03
2017-05-31T00:29:33.580Z,25.09
2017-05-31T00:31:19.923Z,25.05
2017-05-31T00:33:06.198Z,25.09
2017-05-31T00:34:52.320Z,25.09
2017-05-31T00:36:38.653Z,25.09
2017-05-31T00:38:25.764Z,24.98
2017-05-31T00:40:12.886Z,25.09
2017-05-31T00:41:59.241Z,25.05
2017-05-31T00:43:45.361Z,25.06
2017-05-31T00:45:31.480Z,25.05
2017-05-31T00:47:17.827Z,25.03
2017-05-31T00:49:04.566Z,25.10
2017-05-31T00:50:50.690Z,25.02
2017-05-31T00:52:37.048Z,25.06
2017-05-31T00:54:23.271Z,25.05
2017-05-31T00:56:09.404Z,25.00
2017-05-31T00:57:55.882Z,25.06
2017-05-31T00:59:42.025Z,24.95
2017-05-31T01:01:28.136Z,24.99
2017-05-31T01:03:14.585Z,25.03
2017-05-31T01:05:00.706Z,25.06
2017-05-31T01:06:46.827Z,25.03
2017-05-31T01:08:33.227Z,24.96
2017-05-31T01:10:19.399Z,25.00
2017-05-31T01:12:05.512Z,24.99
2017-05-31T01:13:51.856Z,24.96
2017-05-31T01:15:37.973Z,24.98
2017-05-31T01:17:24.082Z,24.99
2017-05-31T01:19:10.568Z,24.98
2017-05-31T01:20:56.760Z,25.06
2017-05-31T01:22:42.870Z,24.95
2017-05-31T01:24:29.259Z,24.96
2017-05-31T01:26:15.397Z,24.91
2017-05-31T01:28:01.570Z,24.90
2017-05-31T01:29:24.681Z,24.99
2017-05-31T01:31:10.942Z,24.91
2017-05-31T01:32:57.057Z,24.95
2017-05-31T01:34:43.159Z,24.95
2017-05-31T01:36:29.511Z,24.95
2017-05-31T01:38:15.623Z,24.95
2017-05-31T01:40:02.749Z,24.88
2017-05-31T01:41:50.099Z,24.85
2017-05-31T01:43:36.208Z,24.87
2017-05-31T01:45:22.336Z,24.88
2017-05-31T01:47:08.708Z,24.90
2017-05-31T01:48:54.825Z,24.88
2017-05-31T01:50:40.990Z,24.88
2017-05-31T01:52:27.501Z,24.88
2017-05-31T01:54:13.634Z,24.85
2017-05-31T01:55:59.774Z,24.81
2017-05-31T01:57:45.901Z,24.87
2017-05-31T01:59:32.733Z,24.81
2017-05-31T02:01:18.905Z,24.85
2017-05-31T02:03:05.289Z,24.77
2017-05-31T02:04:51.417Z,24.81
2017-05-31T02:06:37.528Z,24.83
2017-05-31T02:08:23.876Z,24.81
2017-05-31T02:10:10.013Z,24.80
2017-05-31T02:11:57.128Z,24.83
